Time;durP1;ratioP1;P1;durP2;ratioP2;P2;SDS_P1;SDS_P2;PMS_P1;PMS_P2;Temp;Humidity;BMP_temperature;BMP_pressure;BME280_temperature;BME280_humidity;BME280_pressure;Samples;Min_cycle;Max_cycle;Signal;HPM_P1;HPM_P2
2022/08/31 00:04:12;;;;;;;3.57;1.13;;;;;;;;;;5040863;28;20045;-59
2022/08/31 00:06:38;;;;;;;3.77;0.90;;;;;;;;;;5047330;28;20044;-59
2022/08/31 00:09:05;;;;;;;1.97;0.77;;;;;;;;;;5048317;28;20041;-59
2022/08/31 00:11:34;;;;;;;3.00;0.80;;;;;;;;;;5048162;28;20037;-59
2022/08/31 00:14:02;;;;;;;2.70;0.70;;;;;;;;;;5048401;28;20128;-59
2022/08/31 00:16:30;;;;;;;3.93;0.80;;;;;;;;;;5051455;28;20041;-59
2022/08/31 00:18:56;;;;;;;3.17;0.80;;;;;;;;;;5051591;28;20056;-59
2022/08/31 00:21:25;;;;;;;2.00;0.80;;;;;;;;;;5051807;28;20040;-59
2022/08/31 00:23:51;;;;;;;1.53;0.80;;;;;;;;;;5051853;28;20438;-59
2022/08/31 00:26:17;;;;;;;1.93;0.70;;;;;;;;;;5051460;28;20053;-59
2022/08/31 00:28:43;;;;;;;2.20;0.90;;;;;;;;;;5051055;28;20041;-59
2022/08/31 00:31:09;;;;;;;2.23;1.00;;;;;;;;;;5052062;28;20430;-61
2022/08/31 00:33:36;;;;;;;3.50;0.77;;;;;;;;;;5051381;28;20044;-59
2022/08/31 00:36:06;;;;;;;2.00;0.70;;;;;;;;;;5051485;28;20040;-59
2022/08/31 00:38:32;;;;;;;2.03;0.90;;;;;;;;;;5051485;28;20045;-59
2022/08/31 00:40:58;;;;;;;1.17;0.60;;;;;;;;;;5051807;28;20509;-59
2022/08/31 00:43:36;;;;;;;2.57;0.97;;;;;;;;;;5051311;28;20124;-60
2022/08/31 00:46:02;;;;;;;1.53;0.70;;;;;;;;;;5050709;28;20561;-59
2022/08/31 00:48:28;;;;;;;2.03;0.73;;;;;;;;;;5051733;28;20041;-60
2022/08/31 00:50:55;;;;;;;5.40;0.57;;;;;;;;;;5051486;28;20051;-59
2022/08/31 00:53:21;;;;;;;4.10;0.80;;;;;;;;;;5051056;28;20084;-59
2022/08/31 00:55:47;;;;;;;3.07;0.70;;;;;;;;;;5050819;28;20041;-60
2022/08/31 00:58:13;;;;;;;2.70;0.80;;;;;;;;;;5050854;28;20041;-60
2022/08/31 01:00:41;;;;;;;2.80;0.67;;;;;;;;;;5051266;28;20033;-60
2022/08/31 01:03:07;;;;;;;1.73;0.60;;;;;;;;;;5050817;28;20045;-61
2022/08/31 01:05:34;;;;;;;2.13;0.60;;;;;;;;;;5051008;28;20083;-60
2022/08/31 01:08:00;;;;;;;2.13;0.53;;;;;;;;;;5050469;28;20037;-60
2022/08/31 01:10:29;;;;;;;2.40;0.50;;;;;;;;;;5050591;28;20044;-60
2022/08/31 01:12:56;;;;;;;2.13;0.60;;;;;;;;;;5050757;28;20041;-60
2022/08/31 01:15:22;;;;;;;1.27;0.50;;;;;;;;;;5050512;28;20044;-60
2022/08/31 01:17:49;;;;;;;2.60;0.43;;;;;;;;;;5051044;28;20517;-60
2022/08/31 01:20:27;;;;;;;1.33;0.47;;;;;;;;;;5050565;28;20083;-60
2022/08/31 01:22:56;;;;;;;2.73;1.40;;;;;;;;;;5050585;28;20407;-60
2022/08/31 01:25:22;;;;;;;3.17;0.57;;;;;;;;;;5050127;28;20045;-60
2022/08/31 01:27:48;;;;;;;1.57;0.50;;;;;;;;;;5050711;28;20037;-61
2022/08/31 01:30:20;;;;;;;3.20;0.80;;;;;;;;;;5050121;28;20059;-60
2022/08/31 01:32:46;;;;;;;1.47;0.57;;;;;;;;;;5050124;28;20037;-60
2022/08/31 01:35:12;;;;;;;1.07;0.57;;;;;;;;;;5050784;28;20510;-60
2022/08/31 01:37:38;;;;;;;3.50;0.70;;;;;;;;;;5050033;28;20103;-60
2022/08/31 01:40:04;;;;;;;1.07;0.50;;;;;;;;;;5050291;28;20045;-60
2022/08/31 01:42:31;;;;;;;1.20;0.53;;;;;;;;;;5050252;28;20055;-61
2022/08/31 01:44:57;;;;;;;1.67;0.70;;;;;;;;;;5050289;28;20178;-60
2022/08/31 01:47:24;;;;;;;2.23;0.60;;;;;;;;;;5049046;28;20041;-60
2022/08/31 01:49:50;;;;;;;1.90;0.70;;;;;;;;;;5050934;28;20095;-60
2022/08/31 01:52:16;;;;;;;1.70;0.60;;;;;;;;;;5049975;28;20037;-60
2022/08/31 01:54:42;;;;;;;0.87;0.43;;;;;;;;;;5050049;28;20868;-60
2022/08/31 01:57:09;;;;;;;1.87;0.60;;;;;;;;;;5050142;28;20052;-60
2022/08/31 01:59:35;;;;;;;1.00;0.53;;;;;;;;;;5049321;28;20491;-61
2022/08/31 02:02:01;;;;;;;0.83;0.43;;;;;;;;;;5049903;28;20037;-60
2022/08/31 02:04:28;;;;;;;1.30;0.50;;;;;;;;;;5050291;28;20053;-60
2022/08/31 02:06:56;;;;;;;1.20;0.50;;;;;;;;;;5050205;28;20037;-60
2022/08/31 02:09:24;;;;;;;0.80;0.43;;;;;;;;;;5049597;28;20052;-60
2022/08/31 02:11:51;;;;;;;2.17;0.47;;;;;;;;;;5050024;28;20041;-60
2022/08/31 02:14:17;;;;;;;1.53;0.60;;;;;;;;;;5049949;28;20057;-60
2022/08/31 02:16:43;;;;;;;2.10;0.60;;;;;;;;;;5049171;28;20111;-60
2022/08/31 02:19:09;;;;;;;1.70;0.50;;;;;;;;;;5049656;28;20049;-60
2022/08/31 02:21:35;;;;;;;1.13;0.40;;;;;;;;;;5049636;28;20075;-60
2022/08/31 02:24:01;;;;;;;1.17;0.40;;;;;;;;;;5049521;28;20048;-60
2022/08/31 02:26:28;;;;;;;0.80;0.40;;;;;;;;;;5049800;28;20098;-60
2022/08/31 02:28:54;;;;;;;2.00;0.60;;;;;;;;;;5048901;28;20048;-60
2022/08/31 02:31:20;;;;;;;2.00;0.50;;;;;;;;;;5049389;28;20080;-60
2022/08/31 02:33:46;;;;;;;3.33;0.60;;;;;;;;;;5049512;28;20102;-60
2022/08/31 02:36:12;;;;;;;0.90;0.47;;;;;;;;;;5049514;28;20422;-60
2022/08/31 02:38:38;;;;;;;0.93;0.50;;;;;;;;;;5048519;28;20045;-60
2022/08/31 02:41:05;;;;;;;1.50;0.60;;;;;;;;;;5049146;28;20049;-60
2022/08/31 02:43:31;;;;;;;1.47;0.60;;;;;;;;;;5049632;28;20411;-60
2022/08/31 02:45:57;;;;;;;2.03;0.50;;;;;;;;;;5048982;28;20037;-60
2022/08/31 02:48:23;;;;;;;0.90;0.50;;;;;;;;;;5048742;28;20453;-60
2022/08/31 02:50:50;;;;;;;0.90;0.30;;;;;;;;;;5049518;28;20530;-60
2022/08/31 02:53:17;;;;;;;1.03;0.30;;;;;;;;;;5049018;28;20037;-60
2022/08/31 02:55:43;;;;;;;1.27;0.50;;;;;;;;;;5048075;28;20091;-60
2022/08/31 02:58:10;;;;;;;2.57;0.40;;;;;;;;;;5049009;28;20044;-60
2022/08/31 03:00:37;;;;;;;7.10;0.83;;;;;;;;;;5048885;28;20407;-60
2022/08/31 03:03:03;;;;;;;2.87;0.70;;;;;;;;;;5047941;28;20041;-60
2022/08/31 03:05:29;;;;;;;2.13;0.60;;;;;;;;;;5048899;28;20052;-60
2022/08/31 03:07:56;;;;;;;1.80;0.43;;;;;;;;;;5048776;28;20036;-60
2022/08/31 03:10:23;;;;;;;2.23;0.40;;;;;;;;;;5048488;28;20749;-60
2022/08/31 03:12:49;;;;;;;1.07;0.50;;;;;;;;;;5048163;28;20469;-60
2022/08/31 03:15:16;;;;;;;2.03;0.67;;;;;;;;;;5048434;28;20102;-60
2022/08/31 03:17:42;;;;;;;0.70;0.40;;;;;;;;;;5047695;28;20936;-59
2022/08/31 03:20:08;;;;;;;1.10;0.43;;;;;;;;;;5048499;28;20141;-60
2022/08/31 03:22:34;;;;;;;2.07;0.37;;;;;;;;;;5048709;28;20037;-60
2022/08/31 03:25:01;;;;;;;2.03;0.70;;;;;;;;;;5048175;28;20059;-60
2022/08/31 03:27:31;;;;;;;1.17;0.50;;;;;;;;;;5048510;28;20041;-60
2022/08/31 03:29:57;;;;;;;1.57;0.47;;;;;;;;;;5048051;28;20510;-60
2022/08/31 03:32:23;;;;;;;0.70;0.40;;;;;;;;;;5048501;28;20055;-60
2022/08/31 03:34:57;;;;;;;1.40;0.50;;;;;;;;;;5048605;28;20049;-59
2022/08/31 03:37:23;;;;;;;1.50;0.50;;;;;;;;;;5048380;28;20045;-60
2022/08/31 03:39:49;;;;;;;3.00;0.70;;;;;;;;;;5048599;28;20048;-60
2022/08/31 03:42:16;;;;;;;2.27;0.50;;;;;;;;;;5048347;28;20095;-60
2022/08/31 03:44:42;;;;;;;1.30;0.47;;;;;;;;;;5047945;28;20037;-60
2022/08/31 03:47:08;;;;;;;2.67;0.63;;;;;;;;;;5048059;28;20056;-60
2022/08/31 03:49:34;;;;;;;1.43;0.63;;;;;;;;;;5048072;28;20388;-60
2022/08/31 03:52:01;;;;;;;2.10;0.77;;;;;;;;;;5047889;28;20060;-60
2022/08/31 03:54:27;;;;;;;2.90;0.67;;;;;;;;;;5048342;28;20455;-60
2022/08/31 03:56:53;;;;;;;1.03;0.43;;;;;;;;;;5047657;28;20045;-60
2022/08/31 03:59:19;;;;;;;1.90;0.53;;;;;;;;;;5047710;28;20053;-60
2022/08/31 04:01:45;;;;;;;2.00;0.60;;;;;;;;;;5048235;28;20041;-60
2022/08/31 04:04:12;;;;;;;1.20;0.70;;;;;;;;;;5048265;28;20041;-60
2022/08/31 04:06:43;;;;;;;2.10;0.60;;;;;;;;;;5047737;28;20145;-60
2022/08/31 04:09:09;;;;;;;3.07;1.13;;;;;;;;;;5048191;28;20045;-60
2022/08/31 04:11:35;;;;;;;8.67;1.10;;;;;;;;;;5047767;28;20041;-60
2022/08/31 04:14:01;;;;;;;1.33;0.70;;;;;;;;;;5047090;28;20044;-60
2022/08/31 04:16:27;;;;;;;1.53;0.60;;;;;;;;;;5047062;28;20040;-60
2022/08/31 04:18:53;;;;;;;1.27;0.60;;;;;;;;;;5046708;28;20049;-60
2022/08/31 04:21:21;;;;;;;1.73;0.60;;;;;;;;;;5047528;28;20048;-60
2022/08/31 04:23:48;;;;;;;2.40;0.70;;;;;;;;;;5045597;28;20072;-60
2022/08/31 04:26:16;;;;;;;3.67;0.97;;;;;;;;;;5046122;28;20041;-60
2022/08/31 04:28:42;;;;;;;3.63;0.90;;;;;;;;;;5045899;28;20045;-60
2022/08/31 04:31:08;;;;;;;2.03;0.90;;;;;;;;;;5045248;28;20531;-60
2022/08/31 04:33:38;;;;;;;4.90;0.80;;;;;;;;;;5037649;28;20402;-60
2022/08/31 04:36:05;;;;;;;3.17;0.83;;;;;;;;;;5045824;28;20102;-61
2022/08/31 04:38:31;;;;;;;2.73;1.40;;;;;;;;;;5045925;28;20462;-60
2022/08/31 04:40:57;;;;;;;2.77;0.87;;;;;;;;;;5047335;28;20060;-60
2022/08/31 04:43:24;;;;;;;2.90;0.93;;;;;;;;;;5046296;28;20446;-60
2022/08/31 04:45:50;;;;;;;5.33;1.00;;;;;;;;;;5047080;28;20055;-60
2022/08/31 04:48:16;;;;;;;1.50;0.70;;;;;;;;;;5046008;28;20087;-60
2022/08/31 04:50:42;;;;;;;2.40;0.87;;;;;;;;;;5039448;28;20036;-60
2022/08/31 04:53:09;;;;;;;4.30;1.20;;;;;;;;;;5046508;28;20041;-60
2022/08/31 04:55:38;;;;;;;2.70;1.30;;;;;;;;;;5045499;28;20548;-60
2022/08/31 04:58:04;;;;;;;5.43;1.10;;;;;;;;;;5046693;28;20076;-60
2022/08/31 05:00:30;;;;;;;3.43;0.93;;;;;;;;;;5047757;28;20084;-61
2022/08/31 05:02:56;;;;;;;2.10;1.10;;;;;;;;;;5050494;28;20045;-60
2022/08/31 05:05:23;;;;;;;2.57;1.23;;;;;;;;;;5049748;28;20056;-60
2022/08/31 05:07:49;;;;;;;2.27;1.30;;;;;;;;;;5050309;28;20041;-60
2022/08/31 05:10:15;;;;;;;2.77;0.87;;;;;;;;;;5050095;28;20357;-60
2022/08/31 05:12:43;;;;;;;4.53;1.10;;;;;;;;;;5050585;28;20053;-60
2022/08/31 05:15:09;;;;;;;4.10;1.30;;;;;;;;;;5049182;28;20115;-60
2022/08/31 05:17:35;;;;;;;2.07;1.03;;;;;;;;;;5049854;28;20094;-60
2022/08/31 05:20:01;;;;;;;2.27;1.20;;;;;;;;;;5050115;28;20051;-60
2022/08/31 05:22:29;;;;;;;3.43;1.10;;;;;;;;;;5050036;28;20045;-60
2022/08/31 05:24:55;;;;;;;2.30;1.23;;;;;;;;;;5049468;28;20102;-60
2022/08/31 05:27:21;;;;;;;2.17;1.20;;;;;;;;;;5049636;28;20041;-60
2022/08/31 05:29:47;;;;;;;2.27;1.30;;;;;;;;;;5049104;28;20056;-60
2022/08/31 05:32:13;;;;;;;2.50;1.20;;;;;;;;;;5049956;28;20041;-60
2022/08/31 05:34:39;;;;;;;2.40;1.07;;;;;;;;;;5049359;28;20133;-60
2022/08/31 05:37:05;;;;;;;2.73;1.10;;;;;;;;;;5049421;28;20043;-60
2022/08/31 05:39:32;;;;;;;2.57;1.13;;;;;;;;;;5049875;28;20056;-60
2022/08/31 05:41:58;;;;;;;5.00;1.30;;;;;;;;;;5049902;28;20116;-60
2022/08/31 05:44:25;;;;;;;2.63;1.00;;;;;;;;;;5049691;28;20692;-60
2022/08/31 05:46:51;;;;;;;2.57;1.20;;;;;;;;;;5049157;28;20206;-61
2022/08/31 05:49:17;;;;;;;2.87;1.10;;;;;;;;;;5048136;28;20371;-60
2022/08/31 05:51:43;;;;;;;4.97;1.40;;;;;;;;;;5049281;28;20467;-60
2022/08/31 05:54:09;;;;;;;3.03;1.20;;;;;;;;;;5049625;28;20040;-60
2022/08/31 05:56:36;;;;;;;3.57;1.77;;;;;;;;;;5048979;28;20086;-60
2022/08/31 05:59:02;;;;;;;2.77;1.27;;;;;;;;;;5048949;28;20044;-60
2022/08/31 06:01:30;;;;;;;3.87;1.17;;;;;;;;;;5048467;28;20144;-60
2022/08/31 06:03:57;;;;;;;5.37;1.27;;;;;;;;;;5048830;28;20041;-60
2022/08/31 06:06:24;;;;;;;2.20;1.13;;;;;;;;;;5049119;28;20498;-60
2022/08/31 06:08:50;;;;;;;2.00;1.17;;;;;;;;;;5048841;28;20044;-60
2022/08/31 06:11:18;;;;;;;3.17;1.00;;;;;;;;;;5048676;28;20049;-60
2022/08/31 06:13:44;;;;;;;3.40;1.20;;;;;;;;;;5048199;28;20123;-60
2022/08/31 06:16:10;;;;;;;2.03;1.17;;;;;;;;;;5041801;28;20056;-60
2022/08/31 06:18:39;;;;;;;2.60;1.53;;;;;;;;;;5049196;28;20415;-60
2022/08/31 06:21:09;;;;;;;3.43;1.40;;;;;;;;;;5048631;28;20056;-60
2022/08/31 06:23:36;;;;;;;4.97;1.17;;;;;;;;;;5048682;28;20120;-60
2022/08/31 06:26:03;;;;;;;3.73;1.07;;;;;;;;;;5048894;28;20044;-60
2022/08/31 06:28:31;;;;;;;2.23;1.10;;;;;;;;;;5049132;28;20060;-61
2022/08/31 06:30:58;;;;;;;3.07;1.40;;;;;;;;;;5048634;28;20108;-60
2022/08/31 06:33:24;;;;;;;2.80;1.20;;;;;;;;;;5048403;28;20131;-61
2022/08/31 06:35:50;;;;;;;3.80;1.37;;;;;;;;;;5048487;28;20470;-60
2022/08/31 06:38:16;;;;;;;2.17;1.20;;;;;;;;;;5048917;28;20052;-61
2022/08/31 06:40:42;;;;;;;4.40;1.40;;;;;;;;;;5047595;28;20051;-60
2022/08/31 06:43:08;;;;;;;3.23;1.13;;;;;;;;;;5048405;28;20045;-60
2022/08/31 06:45:34;;;;;;;3.57;1.20;;;;;;;;;;5048943;28;20060;-60
2022/08/31 06:48:02;;;;;;;3.33;1.27;;;;;;;;;;5047763;28;20044;-61
2022/08/31 06:50:28;;;;;;;2.47;1.07;;;;;;;;;;5048044;28;21784;-61
2022/08/31 06:52:54;;;;;;;3.33;1.23;;;;;;;;;;5048219;28;20403;-61
2022/08/31 06:55:20;;;;;;;3.50;1.13;;;;;;;;;;5048322;28;21188;-61
2022/08/31 06:57:47;;;;;;;6.43;0.90;;;;;;;;;;5047605;28;20052;-61
2022/08/31 07:00:13;;;;;;;2.70;0.93;;;;;;;;;;5048477;28;20071;-61
2022/08/31 07:02:39;;;;;;;3.13;1.00;;;;;;;;;;5048070;28;20048;-60
2022/08/31 07:05:05;;;;;;;2.37;1.10;;;;;;;;;;5048013;28;20048;-61
2022/08/31 07:07:31;;;;;;;3.13;1.10;;;;;;;;;;5047618;28;20493;-60
2022/08/31 07:09:57;;;;;;;3.00;1.17;;;;;;;;;;5048082;28;20044;-61
2022/08/31 07:12:23;;;;;;;1.97;0.90;;;;;;;;;;5047719;28;20049;-61
2022/08/31 07:14:49;;;;;;;3.40;1.00;;;;;;;;;;5045005;28;20044;-61
2022/08/31 07:17:15;;;;;;;3.73;1.10;;;;;;;;;;5048144;28;20407;-61
2022/08/31 07:19:41;;;;;;;3.20;1.10;;;;;;;;;;5045297;28;20171;-61
2022/08/31 07:22:08;;;;;;;3.00;0.90;;;;;;;;;;5041517;28;20037;-61
2022/08/31 07:24:34;;;;;;;3.63;1.10;;;;;;;;;;5046695;28;20037;-61
2022/08/31 07:27:08;;;;;;;1.90;0.70;;;;;;;;;;5045260;28;20043;-61
2022/08/31 07:29:39;;;;;;;5.53;0.90;;;;;;;;;;5046800;28;20063;-61
2022/08/31 07:32:06;;;;;;;2.43;0.83;;;;;;;;;;5047881;28;20060;-61
2022/08/31 07:34:32;;;;;;;1.97;0.80;;;;;;;;;;5047840;28;20072;-61
2022/08/31 07:42:46;;;;;;;2.73;0.73;;;;;;;;;;5043238;28;20136;-61
2022/08/31 07:45:23;;;;;;;3.20;0.63;;;;;;;;;;5046788;28;20060;-61
2022/08/31 07:47:49;;;;;;;4.87;1.00;;;;;;;;;;5046106;28;20045;-61
2022/08/31 07:50:16;;;;;;;3.83;0.73;;;;;;;;;;5047159;28;20525;-61
2022/08/31 07:52:46;;;;;;;2.70;0.60;;;;;;;;;;5042391;28;20056;-61
2022/08/31 07:55:12;;;;;;;9.17;1.13;;;;;;;;;;5044940;28;20495;-61
2022/08/31 07:57:43;;;;;;;3.77;0.87;;;;;;;;;;5046916;28;20044;-61
2022/08/31 08:00:13;;;;;;;3.10;0.80;;;;;;;;;;5047546;28;20106;-61
2022/08/31 08:02:39;;;;;;;3.60;0.73;;;;;;;;;;5047215;28;20102;-61
2022/08/31 08:05:09;;;;;;;2.23;0.87;;;;;;;;;;5047450;28;20388;-61
2022/08/31 08:07:36;;;;;;;3.47;0.80;;;;;;;;;;5047499;28;20037;-61
2022/08/31 08:10:04;;;;;;;6.40;0.83;;;;;;;;;;5047571;28;20114;-61
2022/08/31 08:12:34;;;;;;;2.87;0.93;;;;;;;;;;5047325;28;20041;-61
2022/08/31 08:15:00;;;;;;;2.70;0.90;;;;;;;;;;5041593;28;20093;-61
2022/08/31 08:17:26;;;;;;;5.37;0.60;;;;;;;;;;5043477;28;20481;-61
2022/08/31 08:19:52;;;;;;;2.40;0.60;;;;;;;;;;5046573;28;20115;-61
2022/08/31 08:22:18;;;;;;;2.00;0.67;;;;;;;;;;5047334;28;20045;-61
2022/08/31 08:24:46;;;;;;;2.87;0.67;;;;;;;;;;5046415;28;20049;-61
2022/08/31 08:27:12;;;;;;;7.43;0.70;;;;;;;;;;5047766;28;20045;-61
2022/08/31 08:29:39;;;;;;;1.53;0.50;;;;;;;;;;5047297;28;20051;-61
2022/08/31 08:32:07;;;;;;;4.33;0.70;;;;;;;;;;5046383;28;20470;-61
2022/08/31 08:34:34;;;;;;;1.70;0.70;;;;;;;;;;5046488;28;20073;-61
2022/08/31 08:37:00;;;;;;;1.63;0.60;;;;;;;;;;5043998;28;20037;-61
2022/08/31 08:39:27;;;;;;;3.60;1.23;;;;;;;;;;5049369;28;20099;-61
2022/08/31 08:41:56;;;;;;;2.00;0.70;;;;;;;;;;5049581;28;20454;-61
2022/08/31 08:44:23;;;;;;;3.23;0.60;;;;;;;;;;5050290;28;20055;-61
2022/08/31 08:47:00;;;;;;;2.50;0.67;;;;;;;;;;5044227;28;20064;-61
2022/08/31 08:49:37;;;;;;;3.80;0.77;;;;;;;;;;5050844;28;20493;-62
2022/08/31 08:52:07;;;;;;;2.13;0.70;;;;;;;;;;5050896;28;20048;-62
2022/08/31 08:54:43;;;;;;;4.27;0.80;;;;;;;;;;5050733;28;20049;-62
2022/08/31 08:57:13;;;;;;;3.53;0.70;;;;;;;;;;5051082;28;20044;-61
2022/08/31 08:59:43;;;;;;;1.13;0.40;;;;;;;;;;5050469;28;20101;-62
2022/08/31 09:02:24;;;;;;;5.60;0.80;;;;;;;;;;5050690;28;20056;-62
2022/08/31 09:05:03;;;;;;;4.10;0.50;;;;;;;;;;5043867;28;20041;-61
2022/08/31 09:07:41;;;;;;;3.10;0.70;;;;;;;;;;5049821;28;20067;-62
2022/08/31 09:10:07;;;;;;;6.03;0.80;;;;;;;;;;5050312;28;20068;-62
2022/08/31 09:12:56;;;;;;;4.77;0.67;;;;;;;;;;5050617;28;20045;-62
2022/08/31 09:15:37;;;;;;;7.57;0.70;;;;;;;;;;5050611;28;20152;-60
2022/08/31 09:18:12;;;;;;;3.53;0.67;;;;;;;;;;5049747;28;20056;-59
2022/08/31 09:20:40;;;;;;;1.80;0.60;;;;;;;;;;5051139;28;20049;-59
2022/08/31 09:23:06;;;;;;;1.87;0.60;;;;;;;;;;5050345;28;20049;-59
2022/08/31 09:25:52;;;;;;;2.73;0.73;;;;;;;;;;5050722;28;20103;-60
2022/08/31 09:28:33;;;;;;;2.80;0.63;;;;;;;;;;5045485;28;20082;-60
2022/08/31 09:30:59;;;;;;;1.37;0.53;;;;;;;;;;5049150;28;20057;-59
2022/08/31 09:33:31;;;;;;;3.67;0.80;;;;;;;;;;5048591;28;20063;-59
2022/08/31 09:36:14;;;;;;;3.47;0.70;;;;;;;;;;5049326;28;20511;-60
2022/08/31 09:38:40;;;;;;;;;;;;;;;;;;5046489;28;20053;-59
2022/08/31 09:41:35;;;;;;;5.13;1.10;;;;;;;;;;5048933;28;19967;-60
2022/08/31 09:44:19;;;;;;;2.50;0.90;;;;;;;;;;5049665;28;20053;-60
2022/08/31 09:46:47;;;;;;;3.00;0.90;;;;;;;;;;5049098;28;20131;-59
2022/08/31 09:49:44;;;;;;;2.53;0.63;;;;;;;;;;5048843;28;20048;-60
2022/08/31 09:55:12;;;;;;;1.87;0.70;;;;;;;;;;5048098;28;20076;-62
2022/08/31 09:55:13;;;;;;;2.83;0.90;;;;;;;;;;5051834;28;20141;-62
2022/08/31 09:57:47;;;;;;;2.80;0.57;;;;;;;;;;5049065;28;20415;-62
2022/08/31 10:00:15;;;;;;;3.92;0.65;;;;;;;;;;5048901;28;20049;-62
2022/08/31 10:02:42;;;;;;;3.30;0.60;;;;;;;;;;5049187;28;20064;-59
2022/08/31 10:05:27;;;;;;;3.28;0.80;;;;;;;;;;5049283;28;20040;-60
2022/08/31 10:08:03;;;;;;;4.63;0.80;;;;;;;;;;5048982;28;20545;-60
2022/08/31 10:10:37;;;;;;;1.90;0.82;;;;;;;;;;5048503;28;20456;-61
2022/08/31 10:13:09;;;;;;;5.70;0.95;;;;;;;;;;5048732;28;20041;-60
2022/08/31 10:15:38;;;;;;;6.20;0.88;;;;;;;;;;5048228;28;20407;-61
2022/08/31 10:18:10;;;;;;;2.53;0.60;;;;;;;;;;5048891;28;20044;-61
2022/08/31 10:20:38;;;;;;;2.38;0.45;;;;;;;;;;5045960;28;20037;-61
2022/08/31 10:23:24;;;;;;;0.90;0.45;;;;;;;;;;5044490;28;20827;-61
2022/08/31 10:25:53;;;;;;;4.35;0.73;;;;;;;;;;5045257;28;20127;-61
2022/08/31 10:28:39;;;;;;;1.75;0.50;;;;;;;;;;5045207;28;20091;-61
2022/08/31 10:31:09;;;;;;;3.08;0.80;;;;;;;;;;5045243;28;20053;-61
2022/08/31 10:36:37;;;;;;;1.98;0.73;;;;;;;;;;5044898;28;20049;-61
2022/08/31 10:39:08;;;;;;;1.25;0.50;;;;;;;;;;5046211;28;20053;-61
2022/08/31 10:41:39;;;;;;;3.30;0.70;;;;;;;;;;5045573;28;20041;-61
2022/08/31 10:44:16;;;;;;;3.15;0.70;;;;;;;;;;5048456;28;20056;-61
2022/08/31 10:46:42;;;;;;;3.15;0.80;;;;;;;;;;5047881;28;20041;-61
2022/08/31 10:49:10;;;;;;;2.85;0.50;;;;;;;;;;5047910;28;20053;-62
2022/08/31 10:51:49;;;;;;;2.58;0.70;;;;;;;;;;5047583;28;20080;-62
2022/08/31 10:54:35;;;;;;;1.27;0.50;;;;;;;;;;5047586;28;20462;-62
2022/08/31 10:57:11;;;;;;;2.70;0.60;;;;;;;;;;5047158;28;20090;-62
2022/08/31 10:59:46;;;;;;;2.42;0.68;;;;;;;;;;5047510;28;20045;-62
2022/08/31 11:02:15;;;;;;;3.03;0.77;;;;;;;;;;5047653;28;20041;-62
2022/08/31 11:04:44;;;;;;;1.65;0.55;;;;;;;;;;5047174;28;20041;-62
2022/08/31 11:07:29;;;;;;;3.00;0.80;;;;;;;;;;5048105;28;20332;-62
2022/08/31 11:10:04;;;;;;;1.63;0.70;;;;;;;;;;5047062;28;20072;-62
2022/08/31 11:12:41;;;;;;;2.08;0.50;;;;;;;;;;5046430;28;20056;-62
2022/08/31 11:15:24;;;;;;;2.63;0.80;;;;;;;;;;5046430;28;20041;-60
2022/08/31 11:18:03;;;;;;;2.92;0.63;;;;;;;;;;5047676;28;20048;-61
2022/08/31 11:20:32;;;;;;;1.88;0.50;;;;;;;;;;5046249;28;20040;-62
2022/08/31 11:23:17;;;;;;;2.70;0.95;;;;;;;;;;5047592;28;20649;-61
2022/08/31 11:25:46;;;;;;;3.72;0.70;;;;;;;;;;5045562;28;20417;-61
2022/08/31 11:28:33;;;;;;;7.03;0.95;;;;;;;;;;5047488;28;20133;-61
2022/08/31 11:31:19;;;;;;;2.42;0.50;;;;;;;;;;5044076;28;20060;-63
2022/08/31 11:33:49;;;;;;;2.45;0.80;;;;;;;;;;5046232;28;20095;-62
2022/08/31 11:36:36;;;;;;;2.63;0.93;;;;;;;;;;5045376;28;20055;-62
2022/08/31 11:39:02;;;;;;;6.00;0.60;;;;;;;;;;5046026;28;20138;-62
2022/08/31 11:41:32;;;;;;;2.20;0.68;;;;;;;;;;5046903;28;20045;-62
2022/08/31 11:44:00;;;;;;;2.67;0.73;;;;;;;;;;5046753;28;20044;-62
2022/08/31 11:46:26;;;;;;;2.08;0.47;;;;;;;;;;5047347;28;20099;-61
2022/08/31 11:48:53;;;;;;;2.95;0.60;;;;;;;;;;5046478;28;20368;-62
2022/08/31 11:51:39;;;;;;;4.40;0.75;;;;;;;;;;5047220;28;20746;-61
2022/08/31 11:54:11;;;;;;;3.83;0.88;;;;;;;;;;5046551;28;20064;-61
2022/08/31 11:56:38;;;;;;;3.40;0.80;;;;;;;;;;5046684;28;20084;-62
2022/08/31 11:59:20;;;;;;;3.97;0.93;;;;;;;;;;5046795;28;20052;-62
2022/08/31 12:01:46;;;;;;;2.10;0.70;;;;;;;;;;5046337;28;20045;-62
2022/08/31 12:04:40;;;;;;;1.17;0.57;;;;;;;;;;5047483;28;20043;-62
2022/08/31 12:07:09;;;;;;;1.98;0.80;;;;;;;;;;5044791;28;20115;-62
2022/08/31 12:09:54;;;;;;;3.22;0.60;;;;;;;;;;5047307;28;20443;-62
2022/08/31 12:12:21;;;;;;;2.97;0.75;;;;;;;;;;5051373;28;20033;-62
2022/08/31 12:15:06;;;;;;;1.65;0.60;;;;;;;;;;5050663;28;20049;-62
2022/08/31 12:17:45;;;;;;;2.35;0.50;;;;;;;;;;5044504;28;20152;-62
2022/08/31 12:20:17;;;;;;;3.05;0.60;;;;;;;;;;5050549;28;20515;-62
2022/08/31 12:25:46;;;;;;;;;;;;;;;;;;5048233;28;20045;-62
2022/08/31 12:28:24;;;;;;;5.53;0.68;;;;;;;;;;5050694;28;20489;-62
2022/08/31 12:30:54;;;;;;;2.30;0.70;;;;;;;;;;5048484;28;20057;-62
2022/08/31 12:33:28;;;;;;;2.45;0.70;;;;;;;;;;5049369;28;20091;-63
2022/08/31 12:35:56;;;;;;;4.00;0.85;;;;;;;;;;5047834;28;20037;-62
2022/08/31 12:38:25;;;;;;;4.32;0.73;;;;;;;;;;5050753;28;20420;-62
2022/08/31 12:40:55;;;;;;;3.28;1.20;;;;;;;;;;5047892;28;20060;-62
2022/08/31 12:43:21;;;;;;;1.73;0.60;;;;;;;;;;5051229;28;20123;-62
2022/08/31 12:45:56;;;;;;;2.90;0.68;;;;;;;;;;5051427;28;20049;-62
2022/08/31 12:48:41;;;;;;;2.28;1.35;;;;;;;;;;5051364;28;20099;-62
2022/08/31 12:51:33;;;;;;;3.22;0.80;;;;;;;;;;5051266;28;20081;-62
2022/08/31 12:54:18;;;;;;;4.13;0.95;;;;;;;;;;5050193;28;20045;-62
2022/08/31 12:56:51;;;;;;;1.30;0.80;;;;;;;;;;5046388;28;20191;-62
2022/08/31 12:59:32;;;;;;;1.38;0.60;;;;;;;;;;5051243;28;20049;-62
2022/08/31 13:01:59;;;;;;;1.85;0.80;;;;;;;;;;5050404;28;20049;-62
2022/08/31 13:04:26;;;;;;;1.10;0.70;;;;;;;;;;5052159;28;20616;-63
2022/08/31 13:06:52;;;;;;;2.35;0.88;;;;;;;;;;5046842;28;20084;-62
2022/08/31 13:09:29;;;;;;;2.67;0.98;;;;;;;;;;5049973;28;20045;-62
2022/08/31 13:11:57;;;;;;;3.13;0.80;;;;;;;;;;5043653;28;20530;-62
2022/08/31 13:14:25;;;;;;;1.85;0.90;;;;;;;;;;5047267;28;20522;-62
2022/08/31 13:16:53;;;;;;;1.85;0.73;;;;;;;;;;5045786;28;20161;-62
2022/08/31 13:19:25;;;;;;;3.47;0.80;;;;;;;;;;5038351;28;20619;-62
2022/08/31 13:21:57;;;;;;;4.68;0.95;;;;;;;;;;5048895;28;20106;-62
2022/08/31 13:24:31;;;;;;;5.03;0.68;;;;;;;;;;5051346;28;20852;-62
2022/08/31 13:27:17;;;;;;;2.70;0.57;;;;;;;;;;5032522;28;20084;-62
2022/08/31 13:29:43;;;;;;;4.43;0.70;;;;;;;;;;5030467;28;20065;-62
2022/08/31 13:32:14;;;;;;;2.65;0.90;;;;;;;;;;5042074;28;20411;-62
2022/08/31 13:34:43;;;;;;;3.90;0.70;;;;;;;;;;5044929;28;20050;-62
2022/08/31 13:37:13;;;;;;;3.10;0.68;;;;;;;;;;5049392;28;20047;-62
2022/08/31 13:39:44;;;;;;;4.85;0.80;;;;;;;;;;5050288;28;20479;-62
2022/08/31 13:42:22;;;;;;;4.13;0.60;;;;;;;;;;5034726;28;20092;-62
2022/08/31 13:44:59;;;;;;;1.45;0.70;;;;;;;;;;5044318;28;20051;-63
2022/08/31 13:47:27;;;;;;;1.92;0.57;;;;;;;;;;5041392;28;20475;-62
2022/08/31 13:49:56;;;;;;;2.28;0.77;;;;;;;;;;5033321;28;20632;-62
2022/08/31 13:52:22;;;;;;;3.35;0.70;;;;;;;;;;5050803;28;20052;-62
2022/08/31 13:54:59;;;;;;;2.97;0.80;;;;;;;;;;5032344;28;20426;-62
2022/08/31 13:57:27;;;;;;;1.83;0.60;;;;;;;;;;5029497;28;20045;-62
2022/08/31 13:59:53;;;;;;;1.40;0.60;;;;;;;;;;5029000;28;20041;-62
2022/08/31 14:02:21;;;;;;;3.15;0.73;;;;;;;;;;5029192;28;20056;-62
2022/08/31 14:04:51;;;;;;;1.80;0.60;;;;;;;;;;5030218;28;20054;-62
2022/08/31 14:07:20;;;;;;;2.17;0.70;;;;;;;;;;5030215;28;20046;-62
2022/08/31 14:09:57;;;;;;;1.30;0.50;;;;;;;;;;5030441;28;20550;-62
2022/08/31 14:12:34;;;;;;;2.90;0.60;;;;;;;;;;5029943;28;20419;-62
2022/08/31 14:15:17;;;;;;;3.38;0.60;;;;;;;;;;5030501;28;20050;-62
2022/08/31 14:17:51;;;;;;;3.88;0.50;;;;;;;;;;5029908;28;20056;-62
2022/08/31 14:20:27;;;;;;;1.85;0.60;;;;;;;;;;5030061;28;20057;-62
2022/08/31 14:22:53;;;;;;;4.22;0.60;;;;;;;;;;5029235;28;20049;-62
2022/08/31 14:25:20;;;;;;;3.83;0.77;;;;;;;;;;5030285;28;20046;-62
2022/08/31 14:27:47;;;;;;;1.75;0.70;;;;;;;;;;5041855;28;20045;-63
2022/08/31 14:30:13;;;;;;;2.42;0.63;;;;;;;;;;5047056;28;20084;-63
2022/08/31 14:32:44;;;;;;;2.25;0.70;;;;;;;;;;5048792;28;20762;-63
2022/08/31 14:35:11;;;;;;;4.55;0.77;;;;;;;;;;5049687;28;20045;-62
2022/08/31 14:37:42;;;;;;;3.17;1.00;;;;;;;;;;5048291;28;20139;-63
2022/08/31 14:40:09;;;;;;;5.18;0.73;;;;;;;;;;5049602;28;20041;-63
2022/08/31 14:42:37;;;;;;;3.90;0.80;;;;;;;;;;5049488;28;20530;-63
2022/08/31 14:45:05;;;;;;;0.82;0.40;;;;;;;;;;5049004;28;20041;-63
2022/08/31 14:47:33;;;;;;;3.30;0.60;;;;;;;;;;5049485;28;20095;-63
2022/08/31 14:50:05;;;;;;;1.63;0.80;;;;;;;;;;5048951;28;20045;-63
2022/08/31 14:52:33;;;;;;;1.67;0.52;;;;;;;;;;5049059;28;20080;-62
2022/08/31 14:55:01;;;;;;;4.68;1.00;;;;;;;;;;5049246;28;20053;-63
2022/08/31 14:57:28;;;;;;;3.85;0.77;;;;;;;;;;5049321;28;20053;-63
2022/08/31 14:59:56;;;;;;;1.35;0.63;;;;;;;;;;5049318;28;20045;-63
2022/08/31 15:02:22;;;;;;;5.32;0.90;;;;;;;;;;5048785;28;20045;-63
2022/08/31 15:04:49;;;;;;;1.63;0.68;;;;;;;;;;5049101;28;20045;-63
2022/08/31 15:07:17;;;;;;;4.88;0.90;;;;;;;;;;5048988;28;20041;-63
2022/08/31 15:09:45;;;;;;;5.22;1.10;;;;;;;;;;5048674;28;20055;-62
2022/08/31 15:12:11;;;;;;;1.75;0.70;;;;;;;;;;5048894;28;20056;-63